createdAt,value
2018-09-06T00:00:54.765Z,913.78
2018-09-06T00:01:54.735Z,913.78
2018-09-06T00:02:54.708Z,913.76
2018-09-06T00:03:54.664Z,913.79
2018-09-06T00:04:54.667Z,913.80
2018-09-06T00:05:54.605Z,913.76
2018-09-06T00:06:54.998Z,913.81
2018-09-06T00:07:54.748Z,913.81
2018-09-06T00:08:54.518Z,913.80
2018-09-06T00:09:54.500Z,913.79
2018-09-06T00:10:54.464Z,913.80
2018-09-06T00:11:54.435Z,913.82
2018-09-06T00:12:54.549Z,913.87
2018-09-06T00:13:54.374Z,913.84
2018-09-06T00:14:54.356Z,913.83
2018-09-06T00:15:54.305Z,913.88
2018-09-06T00:16:54.278Z,913.86
2018-09-06T00:17:54.251Z,913.86
2018-09-06T00:18:54.460Z,913.88
2018-09-06T00:19:54.171Z,913.86
2018-09-06T00:20:54.165Z,913.81
2018-09-06T00:21:54.159Z,913.87
2018-09-06T00:22:54.096Z,913.87
2018-09-06T00:23:54.060Z,913.87
2018-09-06T00:24:54.013Z,913.89
2018-09-06T00:25:53.982Z,913.89
2018-09-06T00:26:54.032Z,913.88
2018-09-06T00:27:53.971Z,913.88
2018-09-06T00:28:53.905Z,913.86
2018-09-06T00:29:53.894Z,913.86
2018-09-06T00:30:53.830Z,913.89
2018-09-06T00:31:53.809Z,913.87
2018-09-06T00:32:53.786Z,913.89
2018-09-06T00:33:53.737Z,913.88
2018-09-06T00:34:53.808Z,913.88
2018-09-06T00:35:53.701Z,913.87
2018-09-06T00:36:53.657Z,913.90
2018-09-06T00:37:53.641Z,913.90
2018-09-06T00:38:53.667Z,913.90
2018-09-06T00:39:53.909Z,913.86
2018-09-06T00:40:53.527Z,913.88
2018-09-06T00:41:53.486Z,913.89
2018-09-06T00:42:53.467Z,913.90
2018-09-06T00:43:53.427Z,913.88
2018-09-06T00:44:53.403Z,913.87
2018-09-06T00:45:53.577Z,913.89
2018-09-06T00:46:53.534Z,913.84
2018-09-06T00:47:53.312Z,913.86
2018-09-06T00:48:53.272Z,913.84
2018-09-06T00:49:53.237Z,913.84
2018-09-06T00:50:53.208Z,913.87
2018-09-06T00:51:53.632Z,913.87
2018-09-06T00:52:53.154Z,913.88
2018-09-06T00:53:53.122Z,913.91
2018-09-06T00:54:53.084Z,913.90
2018-09-06T00:55:53.060Z,913.91
2018-09-06T00:56:53.025Z,913.92
2018-09-06T00:57:53.138Z,913.89
2018-09-06T00:58:52.972Z,913.92
2018-09-06T00:59:52.928Z,913.95
2018-09-06T01:00:52.892Z,913.92
2018-09-06T01:01:52.870Z,913.92
2018-09-06T01:02:52.832Z,913.93
2018-09-06T01:03:52.802Z,913.98
2018-09-06T01:04:52.789Z,913.97
2018-09-06T01:05:52.747Z,913.93
2018-09-06T01:06:52.723Z,913.95
2018-09-06T01:07:52.711Z,913.99
2018-09-06T01:08:52.652Z,913.97
2018-09-06T01:09:52.620Z,914.01
2018-09-06T01:10:52.587Z,913.99
2018-09-06T01:11:52.564Z,914.04
2018-09-06T01:12:52.526Z,914.04
2018-09-06T01:13:52.754Z,914.01
2018-09-06T01:14:52.469Z,914.01
2018-09-06T01:15:52.440Z,914.05
2018-09-06T01:16:52.392Z,914.04
2018-09-06T01:17:52.370Z,914.03
2018-09-06T01:18:52.333Z,914.09
2018-09-06T01:19:52.757Z,914.09
2018-09-06T01:20:52.297Z,914.05
2018-09-06T01:21:52.243Z,914.06
2018-09-06T01:22:52.208Z,914.06
2018-09-06T01:23:52.195Z,914.05
2018-09-06T01:24:52.153Z,914.06
2018-09-06T01:25:52.123Z,914.08
2018-09-06T01:26:52.083Z,914.03
2018-09-06T01:27:52.063Z,914.05
2018-09-06T01:28:52.014Z,914.06
2018-09-06T01:29:51.995Z,914.02
2018-09-06T01:30:51.973Z,914.03
2018-09-06T01:31:51.928Z,914.01
2018-09-06T01:32:51.903Z,914.08
2018-09-06T01:33:52.469Z,914.05
2018-09-06T01:34:51.824Z,914.05
2018-09-06T01:35:51.806Z,914.05
2018-09-06T01:36:51.766Z,914.08
2018-09-06T01:37:51.729Z,914.08
2018-09-06T01:38:51.720Z,914.04
2018-09-06T01:39:51.674Z,914.08
2018-09-06T01:40:51.659Z,914.07
2018-09-06T01:41:51.813Z,914.07
2018-09-06T01:42:51.578Z,914.04
2018-09-06T01:43:51.544Z,914.05
2018-09-06T01:44:51.512Z,914.04
2018-09-06T01:45:51.499Z,914.04
2018-09-06T01:46:51.455Z,914.02
2018-09-06T01:47:51.826Z,914.02
2018-09-06T01:48:51.391Z,914.04
2018-09-06T01:49:51.364Z,914.06
2018-09-06T01:50:51.364Z,914.03
2018-09-06T01:51:51.302Z,914.06
2018-09-06T01:52:51.331Z,914.10
2018-09-06T01:53:51.398Z,914.10
2018-09-06T01:54:51.200Z,914.14
2018-09-06T01:55:51.172Z,914.15
2018-09-06T01:56:51.138Z,914.12
2018-09-06T01:57:51.110Z,914.11
2018-09-06T01:58:51.088Z,914.06
2018-09-06T01:59:51.044Z,914.08
2018-09-06T02:00:51.019Z,914.03
2018-09-06T02:01:50.979Z,914.02
2018-09-06T02:02:50.944Z,913.98
2018-09-06T02:03:50.912Z,914.00
2018-09-06T02:04:50.881Z,914.00
2018-09-06T02:05:50.844Z,914.02
2018-09-06T02:06:50.832Z,914.00
2018-09-06T02:07:50.787Z,914.04
2018-09-06T02:08:50.784Z,914.04
2018-09-06T02:09:50.729Z,914.06
2018-09-06T02:10:50.706Z,914.05
2018-09-06T02:11:50.674Z,914.04
2018-09-06T02:12:50.630Z,914.05
2018-09-06T02:13:50.608Z,914.07
2018-09-06T02:14:50.563Z,914.05
2018-09-06T02:15:50.548Z,914.11
2018-09-06T02:16:50.502Z,914.10
2018-09-06T02:17:50.481Z,914.10
2018-09-06T02:18:50.442Z,914.14
2018-09-06T02:19:50.422Z,914.11
2018-09-06T02:20:50.668Z,914.11
2018-09-06T02:21:50.356Z,914.10
2018-09-06T02:22:50.326Z,914.13
2018-09-06T02:23:50.275Z,914.11
2018-09-06T02:24:50.255Z,914.07
2018-09-06T02:25:50.221Z,914.08
2018-09-06T02:27:50.161Z,914.06
2018-09-06T02:28:50.134Z,914.06
2018-09-06T02:29:50.091Z,914.07
2018-09-06T02:30:50.068Z,914.07
2018-09-06T02:31:50.024Z,914.05
2018-09-06T02:32:50.047Z,914.07
2018-09-06T02:33:49.968Z,914.12
2018-09-06T02:34:49.939Z,914.11
2018-09-06T02:35:49.897Z,914.09
2018-09-06T02:36:49.875Z,914.09
2018-09-06T02:37:49.852Z,914.12
2018-09-06T02:38:49.810Z,914.11
2018-09-06T02:39:49.777Z,914.13
2018-09-06T02:40:49.735Z,914.12
2018-09-06T02:41:49.710Z,914.09
2018-09-06T02:42:49.679Z,914.12
2018-09-06T02:43:49.644Z,914.09
2018-09-06T02:44:49.624Z,914.07
2018-09-06T02:45:49.580Z,914.02
2018-09-06T02:46:49.557Z,914.01
2018-09-06T02:47:49.768Z,914.01
2018-09-06T02:48:49.499Z,913.99
2018-09-06T02:49:49.463Z,913.93
2018-09-06T02:50:49.426Z,913.92
2018-09-06T02:51:49.388Z,913.92
2018-09-06T02:52:49.362Z,913.95
2018-09-06T02:53:49.681Z,913.94
2018-09-06T02:54:49.365Z,913.92
2018-09-06T02:55:49.271Z,913.88
2018-09-06T02:56:49.277Z,913.87
2018-09-06T02:57:49.214Z,913.87
2018-09-06T02:58:49.179Z,913.84
2018-09-06T02:59:49.294Z,913.84
2018-09-06T03:00:49.098Z,913.80
2018-09-06T03:01:49.070Z,913.80
2018-09-06T03:02:49.037Z,913.78
2018-09-06T03:03:49.015Z,913.75
2018-09-06T03:04:48.975Z,913.75
2018-09-06T03:05:48.997Z,913.77
2018-09-06T03:06:48.912Z,913.76
2018-09-06T03:07:48.882Z,913.81
2018-09-06T03:08:48.843Z,913.83
2018-09-06T03:09:48.813Z,913.81
2018-09-06T03:10:48.781Z,913.83
2018-09-06T03:11:48.748Z,913.80
2018-09-06T03:12:48.714Z,913.75
2018-09-06T03:13:48.691Z,913.79
2018-09-06T03:14:48.654Z,913.73
2018-09-06T03:15:48.620Z,913.71
2018-09-06T03:16:48.597Z,913.69
2018-09-06T03:17:48.553Z,913.65
2018-09-06T03:18:48.512Z,913.64
2018-09-06T03:19:48.484Z,913.67
2018-09-06T03:20:48.603Z,913.64
2018-09-06T03:21:48.424Z,913.63
2018-09-06T03:22:48.410Z,913.62
2018-09-06T03:23:48.358Z,913.67
2018-09-06T03:24:48.324Z,913.64
2018-09-06T03:25:48.287Z,913.62
2018-09-06T03:26:48.276Z,913.65
2018-09-06T03:27:48.238Z,913.67
2018-09-06T03:28:48.205Z,913.66
2018-09-06T03:29:48.161Z,913.68
2018-09-06T03:30:48.136Z,913.59
2018-09-06T03:31:48.099Z,913.61
2018-09-06T03:32:48.067Z,913.61
2018-09-06T03:33:48.043Z,913.55
2018-09-06T03:34:48.010Z,913.57
2018-09-06T03:35:47.997Z,913.56
2018-09-06T03:36:47.942Z,913.51
2018-09-06T03:37:47.902Z,913.47
2018-09-06T03:38:47.870Z,913.48
2018-09-06T03:39:47.844Z,913.50
2018-09-06T03:40:47.804Z,913.47
2018-09-06T03:41:47.780Z,913.42
2018-09-06T03:42:47.756Z,913.43
2018-09-06T03:43:47.718Z,913.41
2018-09-06T03:44:47.682Z,913.42
2018-09-06T03:45:47.648Z,913.43
2018-09-06T03:46:47.620Z,913.39
2018-09-06T03:47:47.787Z,913.42
2018-09-06T03:48:47.557Z,913.40
2018-09-06T03:49:47.519Z,913.40
2018-09-06T03:50:47.488Z,913.34
2018-09-06T03:51:47.450Z,913.30
2018-09-06T03:52:47.433Z,913.27
2018-09-06T03:53:47.537Z,913.30
2018-09-06T03:54:47.363Z,913.32
2018-09-06T03:55:47.332Z,913.28
2018-09-06T03:56:47.353Z,913.27
2018-09-06T03:57:47.260Z,913.25
2018-09-06T03:58:47.227Z,913.22
2018-09-06T03:59:47.184Z,913.21
2018-09-06T04:00:47.161Z,913.17
2018-09-06T04:01:47.134Z,913.18
2018-09-06T04:02:47.092Z,913.20
2018-09-06T04:03:47.056Z,913.19
2018-09-06T04:04:47.038Z,913.18
2018-09-06T04:05:46.996Z,913.15
2018-09-06T04:06:46.964Z,913.17
2018-09-06T04:07:46.935Z,913.18
2018-09-06T04:08:46.899Z,913.17
2018-09-06T04:09:46.861Z,913.13
2018-09-06T04:10:46.845Z,913.17
2018-09-06T04:11:46.795Z,913.12
2018-09-06T04:12:46.769Z,913.15
2018-09-06T04:13:46.734Z,913.10
2018-09-06T04:14:46.723Z,913.10
2018-09-06T04:15:46.677Z,913.09
2018-09-06T04:16:46.660Z,913.08
2018-09-06T04:17:46.623Z,913.01
2018-09-06T04:18:46.585Z,913.04
2018-09-06T04:19:46.749Z,913.04
2018-09-06T04:20:46.517Z,913.05
2018-09-06T04:21:46.480Z,913.05
2018-09-06T04:22:46.436Z,913.08
2018-09-06T04:23:46.412Z,913.07
2018-09-06T04:24:46.375Z,913.06
2018-09-06T04:25:46.790Z,913.09
2018-09-06T04:26:46.318Z,913.11
2018-09-06T04:27:46.277Z,913.11
2018-09-06T04:28:46.251Z,913.11
2018-09-06T04:29:46.222Z,913.09
2018-09-06T04:30:46.173Z,913.12
2018-09-06T04:31:46.495Z,913.09
2018-09-06T04:32:46.107Z,913.06
2018-09-06T04:33:46.078Z,913.09
2018-09-06T04:34:46.052Z,913.07
2018-09-06T04:35:46.014Z,913.07
2018-09-06T04:36:45.980Z,913.02
2018-09-06T04:37:45.959Z,913.07
2018-09-06T04:38:45.914Z,913.09
2018-09-06T04:39:45.879Z,913.04
2018-09-06T04:40:45.870Z,913.07
2018-09-06T04:41:45.825Z,913.06
2018-09-06T04:42:45.917Z,913.02
2018-09-06T04:43:45.866Z,913.05
2018-09-06T04:44:45.716Z,913.05
2018-09-06T04:45:45.698Z,913.03
2018-09-06T04:46:45.648Z,912.99
2018-09-06T04:47:45.824Z,913.05
2018-09-06T04:48:45.583Z,913.03
2018-09-06T04:49:45.561Z,913.03
2018-09-06T04:50:45.586Z,913.03
2018-09-06T04:51:45.492Z,913.02
2018-09-06T04:52:45.457Z,913.01
2018-09-06T04:53:45.675Z,912.99
2018-09-06T04:54:45.391Z,912.97
2018-09-06T04:55:45.358Z,912.97
2018-09-06T04:56:45.322Z,912.97
2018-09-06T04:57:45.299Z,912.94
2018-09-06T04:58:45.258Z,912.91
2018-09-06T04:59:45.427Z,912.94
2018-09-06T05:00:45.207Z,912.92
2018-09-06T05:01:45.180Z,912.92
2018-09-06T05:02:45.121Z,912.95
2018-09-06T05:03:45.092Z,912.99
2018-09-06T05:04:45.068Z,912.96
2018-09-06T05:05:45.036Z,912.97
2018-09-06T05:06:45.043Z,912.99
2018-09-06T05:07:44.957Z,913.00
2018-09-06T05:08:44.929Z,912.99
2018-09-06T05:09:44.893Z,912.99
2018-09-06T05:10:44.863Z,913.00
2018-09-06T05:11:44.835Z,913.00
2018-09-06T05:12:44.803Z,913.01
2018-09-06T05:13:44.777Z,912.97
2018-09-06T05:14:44.736Z,912.95
2018-09-06T05:15:44.700Z,912.92
2018-09-06T05:16:44.672Z,912.92
2018-09-06T05:17:44.638Z,912.92
2018-09-06T05:18:44.607Z,912.85
2018-09-06T05:19:44.576Z,912.86
2018-09-06T05:20:44.781Z,912.84
2018-09-06T05:21:44.494Z,912.84
2018-09-06T05:22:44.481Z,912.85
2018-09-06T05:23:44.429Z,912.86
2018-09-06T05:24:44.404Z,912.86
2018-09-06T05:25:44.374Z,912.86
2018-09-06T05:26:44.687Z,912.87
2018-09-06T05:27:44.293Z,912.86
2018-09-06T05:28:44.269Z,912.87
2018-09-06T05:29:44.227Z,912.84
2018-09-06T05:30:44.243Z,912.84
2018-09-06T05:31:44.176Z,912.84
2018-09-06T05:32:44.137Z,912.83
2018-09-06T05:33:44.102Z,912.85
2018-09-06T05:34:44.089Z,912.81
2018-09-06T05:35:44.037Z,912.86
2018-09-06T05:36:43.997Z,912.83
2018-09-06T05:37:43.961Z,912.82
2018-09-06T05:38:43.986Z,912.80
2018-09-06T05:39:43.896Z,912.82
2018-09-06T05:40:43.864Z,912.78
2018-09-06T05:41:43.828Z,912.81
2018-09-06T05:42:43.798Z,912.81
2018-09-06T05:43:43.774Z,912.80
2018-09-06T05:44:43.736Z,912.78
2018-09-06T05:45:43.696Z,912.79
2018-09-06T05:46:43.672Z,912.77
2018-09-06T05:47:43.630Z,912.76
2018-09-06T05:48:43.598Z,912.74
2018-09-06T05:49:43.571Z,912.72
2018-09-06T05:50:43.534Z,912.72
2018-09-06T05:51:43.507Z,912.69
2018-09-06T05:52:43.466Z,912.71
2018-09-06T05:53:43.436Z,912.76
2018-09-06T05:54:43.410Z,912.74
2018-09-06T05:55:43.369Z,912.73
2018-09-06T05:56:43.337Z,912.72
2018-09-06T05:57:43.311Z,912.70
2018-09-06T05:58:43.265Z,912.69
2018-09-06T05:59:43.345Z,912.70
2018-09-06T06:00:43.247Z,912.68
2018-09-06T06:01:43.164Z,912.66
2018-09-06T06:02:43.133Z,912.69
2018-09-06T06:03:43.104Z,912.70
2018-09-06T06:04:43.063Z,912.68
2018-09-06T06:05:43.036Z,912.65
2018-09-06T06:06:43.002Z,912.64
2018-09-06T06:07:42.971Z,912.66
2018-09-06T06:08:42.935Z,912.68
2018-09-06T06:09:42.907Z,912.68
2018-09-06T06:10:42.871Z,912.68
2018-09-06T06:11:42.865Z,912.66
2018-09-06T06:12:42.804Z,912.65
2018-09-06T06:13:42.782Z,912.65
2018-09-06T06:14:42.739Z,912.62
2018-09-06T06:15:42.697Z,912.60
2018-09-06T06:16:42.664Z,912.57
2018-09-06T06:17:42.631Z,912.61
2018-09-06T06:18:42.602Z,912.61
2018-09-06T06:19:42.719Z,912.60
2018-09-06T06:20:42.536Z,912.59
2018-09-06T06:21:42.523Z,912.67
2018-09-06T06:22:42.463Z,912.66
2018-09-06T06:23:42.440Z,912.62
2018-09-06T06:24:42.404Z,912.61
2018-09-06T06:25:42.380Z,912.64
2018-09-06T06:26:42.338Z,912.67
2018-09-06T06:27:42.305Z,912.68
2018-09-06T06:28:42.262Z,912.69
2018-09-06T06:29:42.230Z,912.67
2018-09-06T06:30:42.206Z,912.66
2018-09-06T06:31:42.164Z,912.62
2018-09-06T06:32:42.136Z,912.52
2018-09-06T06:33:42.100Z,912.54
2018-09-06T06:34:42.066Z,912.53
2018-09-06T06:35:42.041Z,912.53
2018-09-06T06:36:42.027Z,912.54
2018-09-06T06:37:41.968Z,912.58
2018-09-06T06:38:41.929Z,912.63
2018-09-06T06:39:41.926Z,912.62
2018-09-06T06:40:41.876Z,912.65
2018-09-06T06:41:41.842Z,912.64
2018-09-06T06:42:41.791Z,912.60
2018-09-06T06:43:41.763Z,912.58
2018-09-06T06:44:41.742Z,912.56
2018-09-06T06:45:41.700Z,912.53
2018-09-06T06:46:41.908Z,912.52
2018-09-06T06:47:41.633Z,912.58
2018-09-06T06:48:41.621Z,912.65
2018-09-06T06:49:41.566Z,912.63
2018-09-06T06:50:41.534Z,912.65
2018-09-06T06:51:41.502Z,912.65
2018-09-06T06:52:41.757Z,912.66
2018-09-06T06:53:41.433Z,912.70
2018-09-06T06:54:41.407Z,912.70
2018-09-06T06:55:41.352Z,912.67
2018-09-06T06:56:41.319Z,912.70
2018-09-06T06:57:41.294Z,912.69
2018-09-06T06:58:41.444Z,912.67
2018-09-06T06:59:41.242Z,912.65
2018-09-06T07:00:41.187Z,912.67
2018-09-06T07:01:41.156Z,912.66
2018-09-06T07:02:41.120Z,912.73
2018-09-06T07:03:41.093Z,912.73
2018-09-06T07:04:41.110Z,912.77
2018-09-06T07:05:41.036Z,912.77
2018-09-06T07:06:41.012Z,912.82
2018-09-06T07:07:40.958Z,912.80
2018-09-06T07:08:40.914Z,912.85
2018-09-06T07:09:40.888Z,912.85
2018-09-06T07:10:40.859Z,912.88
2018-09-06T07:11:40.816Z,912.90
2018-09-06T07:12:40.792Z,912.91
2018-09-06T07:13:40.755Z,912.93
2018-09-06T07:14:40.716Z,912.98
2018-09-06T07:15:40.696Z,912.93
2018-09-06T07:16:40.650Z,912.91
2018-09-06T07:17:40.612Z,912.92
2018-09-06T07:18:40.721Z,912.95
2018-09-06T07:19:40.753Z,912.97
2018-09-06T07:20:40.515Z,912.94
2018-09-06T07:21:40.484Z,913.04
2018-09-06T07:22:40.456Z,913.06
2018-09-06T07:23:40.431Z,913.11
2018-09-06T07:24:40.372Z,913.09
2018-09-06T07:25:40.611Z,913.09
2018-09-06T07:26:40.337Z,913.15
2018-09-06T07:27:40.282Z,913.16
2018-09-06T07:28:40.258Z,913.16
2018-09-06T07:29:40.218Z,913.19
2018-09-06T07:30:40.223Z,913.21
2018-09-06T07:31:40.150Z,913.23
2018-09-06T07:32:40.110Z,913.24
2018-09-06T07:33:40.073Z,913.19
2018-09-06T07:34:40.043Z,913.20
2018-09-06T07:35:40.007Z,913.19
2018-09-06T07:36:39.978Z,913.17
2018-09-06T07:37:39.943Z,913.13
2018-09-06T07:38:39.909Z,913.14
2018-09-06T07:39:39.877Z,913.15
2018-09-06T07:40:39.843Z,913.17
2018-09-06T07:41:39.798Z,913.23
2018-09-06T07:42:39.760Z,913.24
2018-09-06T07:43:39.738Z,913.27
2018-09-06T07:44:39.696Z,913.31
2018-09-06T07:45:39.681Z,913.30
2018-09-06T07:46:39.799Z,913.28
2018-09-06T07:47:39.599Z,913.27
2018-09-06T07:48:39.567Z,913.29
2018-09-06T07:49:39.534Z,913.31
2018-09-06T07:50:39.501Z,913.31
2018-09-06T07:51:39.469Z,913.33
2018-09-06T07:52:39.429Z,913.35
2018-09-06T07:53:39.388Z,913.36
2018-09-06T07:54:39.354Z,913.36
2018-09-06T07:55:39.319Z,913.38
2018-09-06T07:56:39.289Z,913.41
2018-09-06T07:57:39.258Z,913.40
2018-09-06T07:58:39.225Z,913.39
2018-09-06T07:59:39.195Z,913.36
2018-09-06T08:00:39.150Z,913.39
2018-09-06T08:01:39.136Z,913.40
2018-09-06T08:02:39.089Z,913.40
2018-09-06T08:03:39.057Z,913.40
2018-09-06T08:04:39.026Z,913.43
2018-09-06T08:05:38.985Z,913.42
2018-09-06T08:06:38.945Z,913.42
2018-09-06T08:07:38.910Z,913.44
2018-09-06T08:08:38.882Z,913.41
2018-09-06T08:09:38.847Z,913.40
2018-09-06T08:10:38.809Z,913.39
2018-09-06T08:11:38.771Z,913.41
2018-09-06T08:12:38.745Z,913.42
2018-09-06T08:13:39.002Z,913.43
2018-09-06T08:14:38.678Z,913.43
2018-09-06T08:15:38.638Z,913.45
2018-09-06T08:16:38.612Z,913.48
2018-09-06T08:17:38.589Z,913.49
2018-09-06T08:18:38.556Z,913.49
2018-09-06T08:19:38.668Z,913.50
2018-09-06T08:20:38.474Z,913.52
2018-09-06T08:21:38.438Z,913.57
2018-09-06T08:22:38.401Z,913.60
2018-09-06T08:23:38.368Z,913.60
2018-09-06T08:24:38.328Z,913.68
2018-09-06T08:25:38.296Z,913.69
2018-09-06T08:26:38.270Z,913.70
2018-09-06T08:27:38.225Z,913.67
2018-09-06T08:28:38.187Z,913.71
2018-09-06T08:29:38.162Z,913.73
2018-09-06T08:30:38.171Z,913.76
2018-09-06T08:31:38.085Z,913.72
2018-09-06T08:32:38.055Z,913.74
2018-09-06T08:33:38.028Z,913.76
2018-09-06T08:34:37.995Z,913.75
2018-09-06T08:35:38.053Z,913.78
2018-09-06T08:36:37.927Z,913.76
2018-09-06T08:37:37.884Z,913.74
2018-09-06T08:38:37.861Z,913.82
2018-09-06T08:39:37.818Z,913.88
2018-09-06T08:40:37.785Z,913.92
2018-09-06T08:41:37.743Z,914.02
2018-09-06T08:42:37.707Z,914.04
2018-09-06T08:43:37.672Z,914.06
2018-09-06T08:44:37.648Z,914.05
2018-09-06T08:45:37.615Z,914.04
2018-09-06T08:46:37.588Z,914.03
2018-09-06T08:47:37.605Z,914.04
2018-09-06T08:48:37.500Z,914.03
2018-09-06T08:49:37.476Z,914.06
2018-09-06T08:50:37.445Z,914.05
2018-09-06T08:51:37.408Z,914.05
2018-09-06T08:52:37.371Z,914.02
2018-09-06T08:53:37.343Z,914.05
2018-09-06T08:54:37.295Z,914.02
2018-09-06T08:55:37.271Z,914.04
2018-09-06T08:56:37.238Z,914.05
2018-09-06T08:57:37.200Z,914.09
2018-09-06T08:58:37.238Z,914.10
2018-09-06T08:59:37.192Z,914.14
2018-09-06T09:00:37.098Z,914.11
2018-09-06T09:01:37.066Z,914.14
2018-09-06T09:02:37.109Z,914.15
2018-09-06T09:03:36.995Z,914.11
2018-09-06T09:04:37.008Z,914.07
2018-09-06T09:05:36.920Z,914.10
2018-09-06T09:06:36.884Z,914.13
2018-09-06T09:07:36.875Z,914.21
2018-09-06T09:08:36.813Z,914.22
2018-09-06T09:09:36.789Z,914.23
2018-09-06T09:10:36.750Z,914.19
2018-09-06T09:11:37.081Z,914.18
2018-09-06T09:12:36.710Z,914.19
2018-09-06T09:13:36.647Z,914.21
2018-09-06T09:14:36.627Z,914.30
2018-09-06T09:15:36.570Z,914.30
2018-09-06T09:16:36.535Z,914.34
2018-09-06T09:17:36.702Z,914.36
2018-09-06T09:18:36.473Z,914.38
2018-09-06T09:19:36.439Z,914.39
2018-09-06T09:20:36.404Z,914.35
2018-09-06T09:21:36.396Z,914.35
2018-09-06T09:22:36.338Z,914.34
2018-09-06T09:23:36.299Z,914.30
2018-09-06T09:24:36.269Z,914.30
2018-09-06T09:25:36.307Z,914.24
2018-09-06T09:26:36.200Z,914.23
2018-09-06T09:27:36.155Z,914.21
2018-09-06T09:28:36.131Z,914.23
2018-09-06T09:29:36.087Z,914.24
2018-09-06T09:30:36.135Z,914.24
2018-09-06T09:31:36.016Z,914.24
2018-09-06T09:32:35.989Z,914.24
2018-09-06T09:33:35.957Z,914.23
2018-09-06T09:34:35.915Z,914.26
2018-09-06T09:35:35.885Z,914.24
2018-09-06T09:36:35.856Z,914.22
2018-09-06T09:37:35.807Z,914.26
2018-09-06T09:38:35.795Z,914.26
2018-09-06T09:39:35.749Z,914.30
2018-09-06T09:40:35.716Z,914.23
2018-09-06T09:41:35.677Z,914.29
2018-09-06T09:42:35.653Z,914.28
2018-09-06T09:43:35.600Z,914.31
2018-09-06T09:44:35.583Z,914.32
2018-09-06T09:45:35.543Z,914.38
2018-09-06T09:47:57.987Z,914.39
2018-09-06T09:48:57.798Z,914.39
2018-09-06T09:49:57.882Z,914.38
2018-09-06T09:50:57.729Z,914.40
2018-09-06T09:51:57.767Z,914.47
2018-09-06T09:52:57.655Z,914.49
2018-09-06T09:53:57.869Z,914.52
2018-09-06T09:54:57.583Z,914.54
2018-09-06T09:55:57.552Z,914.61
2018-09-06T09:56:57.556Z,914.60
2018-09-06T09:57:57.503Z,914.66
2018-09-06T09:58:57.454Z,914.63
2018-09-06T09:59:57.716Z,914.66
2018-09-06T10:00:57.390Z,914.67
2018-09-06T10:01:57.350Z,914.63
2018-09-06T10:02:57.308Z,914.68
2018-09-06T10:03:57.278Z,914.65
2018-09-06T10:04:57.250Z,914.69
2018-09-06T10:05:57.206Z,914.74
2018-09-06T10:06:57.179Z,914.74
2018-09-06T10:07:57.155Z,914.71
2018-09-06T10:08:57.112Z,914.73
2018-09-06T10:09:57.070Z,914.74
2018-09-06T10:10:57.039Z,914.72
2018-09-06T10:11:57.008Z,914.73
2018-09-06T10:12:56.972Z,914.74
2018-09-06T10:13:56.938Z,914.77
2018-09-06T10:15:56.872Z,914.82
2018-09-06T10:16:56.840Z,914.84
2018-09-06T10:17:56.807Z,914.91
2018-09-06T10:18:56.781Z,914.93
2018-09-06T10:19:56.734Z,914.95
2018-09-06T10:20:57.003Z,914.94
2018-09-06T10:21:56.674Z,914.96
2018-09-06T10:22:56.635Z,914.95
2018-09-06T10:23:56.593Z,914.98
2018-09-06T10:24:56.570Z,914.97
2018-09-06T10:25:56.535Z,915.01
2018-09-06T10:26:56.495Z,915.01
2018-09-06T10:27:56.463Z,915.02
2018-09-06T10:28:56.442Z,915.04
2018-09-06T10:29:56.400Z,915.04
2018-09-06T10:30:56.370Z,915.09
2018-09-06T10:31:56.337Z,915.09
2018-09-06T10:32:56.303Z,915.13
2018-09-06T10:33:56.286Z,915.16
2018-09-06T10:34:56.226Z,915.14
2018-09-06T10:35:56.195Z,915.17
2018-09-06T10:36:56.191Z,915.20
2018-09-06T10:37:56.131Z,915.21
2018-09-06T10:38:56.105Z,915.20
2018-09-06T10:39:56.066Z,915.28
2018-09-06T10:40:56.091Z,915.27
2018-09-06T10:41:56.007Z,915.27
2018-09-06T10:42:55.973Z,915.28
2018-09-06T10:43:55.931Z,915.27
2018-09-06T10:44:55.899Z,915.23
2018-09-06T10:45:55.873Z,915.19
2018-09-06T10:46:55.834Z,915.18
2018-09-06T10:47:56.016Z,915.21
2018-09-06T10:48:55.771Z,915.20
2018-09-06T10:49:55.736Z,915.25
2018-09-06T10:50:55.700Z,915.32
2018-09-06T10:51:55.668Z,915.28
2018-09-06T10:52:55.644Z,915.28
2018-09-06T10:53:55.760Z,915.31
2018-09-06T10:54:55.580Z,915.31
2018-09-06T10:55:55.538Z,915.32
2018-09-06T10:56:55.517Z,915.27
2018-09-06T10:57:55.481Z,915.32
2018-09-06T10:58:55.445Z,915.34
2018-09-06T10:59:55.415Z,915.32
2018-09-06T11:00:55.389Z,915.39
2018-09-06T11:01:55.351Z,915.31
2018-09-06T11:02:55.310Z,915.34
2018-09-06T11:03:55.275Z,915.35
2018-09-06T11:04:55.254Z,915.34
2018-09-06T11:05:55.221Z,915.34
2018-09-06T11:06:55.187Z,915.36
2018-09-06T11:07:55.163Z,915.32
2018-09-06T11:08:55.129Z,915.32
2018-09-06T11:09:55.095Z,915.32
2018-09-06T11:10:55.092Z,915.32
2018-09-06T11:11:55.018Z,915.31
2018-09-06T11:12:54.985Z,915.32
2018-09-06T11:13:54.958Z,916.07
2018-09-06T11:14:54.938Z,916.10
2018-09-06T11:15:54.889Z,916.04
2018-09-06T11:16:54.863Z,916.01
2018-09-06T11:17:54.885Z,916.13
2018-09-06T11:18:54.793Z,916.19
2018-09-06T11:19:54.916Z,916.15
2018-09-06T11:20:54.773Z,916.16
2018-09-06T11:21:54.827Z,916.07
2018-09-06T11:22:54.675Z,916.08
2018-09-06T11:23:54.636Z,916.05
2018-09-06T11:24:54.615Z,916.11
2018-09-06T11:26:54.545Z,916.14
2018-09-06T11:27:54.553Z,916.14
2018-09-06T11:28:54.492Z,916.18
2018-09-06T11:29:54.466Z,916.19
2018-09-06T11:30:54.434Z,916.19
2018-09-06T11:31:54.406Z,916.16
2018-09-06T11:32:54.375Z,916.18
2018-09-06T11:33:54.348Z,916.12
2018-09-06T11:34:54.317Z,916.13
2018-09-06T11:35:54.283Z,916.09
2018-09-06T11:36:54.487Z,916.10
2018-09-06T11:37:54.222Z,916.13
2018-09-06T11:38:54.193Z,916.14
2018-09-06T11:39:54.189Z,916.10
2018-09-06T11:40:54.152Z,916.12
2018-09-06T11:41:54.120Z,916.08
2018-09-06T11:42:54.100Z,916.04
2018-09-06T11:43:54.099Z,916.03
2018-09-06T11:44:54.044Z,916.01
2018-09-06T11:45:54.012Z,916.10
2018-09-06T11:46:54.092Z,916.09
2018-09-06T11:47:53.997Z,916.13
2018-09-06T11:48:53.932Z,916.18
2018-09-06T11:49:53.900Z,916.14
2018-09-06T11:50:53.882Z,916.17
2018-09-06T11:51:53.899Z,916.20
2018-09-06T11:52:53.853Z,916.18
2018-09-06T11:53:53.798Z,916.16
2018-09-06T11:54:53.771Z,916.18
2018-09-06T11:55:53.759Z,916.16
2018-09-06T11:56:53.728Z,916.18
2018-09-06T11:57:53.708Z,916.16
2018-09-06T11:58:53.671Z,916.18
2018-09-06T11:59:53.661Z,916.16
2018-09-06T12:00:53.638Z,916.13
2018-09-06T12:01:53.610Z,916.17
2018-09-06T12:02:53.582Z,916.18
2018-09-06T12:03:53.622Z,916.14
2018-09-06T12:04:53.535Z,916.17
2018-09-06T12:05:53.510Z,916.19
2018-09-06T12:06:53.486Z,916.17
2018-09-06T12:07:53.466Z,916.15
2018-09-06T12:08:53.436Z,916.12
2018-09-06T12:09:53.410Z,916.10
2018-09-06T12:10:53.391Z,916.05
2018-09-06T12:11:53.363Z,915.98
2018-09-06T12:12:53.351Z,915.98
2018-09-06T12:13:53.389Z,915.97
2018-09-06T12:14:53.304Z,915.97
2018-09-06T12:15:53.281Z,915.96
2018-09-06T12:16:53.250Z,915.93
2018-09-06T12:17:53.244Z,915.92
2018-09-06T12:18:53.220Z,915.92
2018-09-06T12:19:53.192Z,915.95
2018-09-06T12:20:53.166Z,915.95
2018-09-06T12:21:53.142Z,915.97
2018-09-06T12:22:53.119Z,915.94
2018-09-06T12:23:53.103Z,915.94
2018-09-06T12:24:53.082Z,915.90
2018-09-06T12:25:53.058Z,915.90
2018-09-06T12:26:53.039Z,915.95
2018-09-06T12:27:53.015Z,915.95
2018-09-06T12:28:52.988Z,916.00
2018-09-06T12:29:52.978Z,915.97
2018-09-06T12:30:52.950Z,916.01
2018-09-06T12:31:52.932Z,916.05
2018-09-06T12:32:52.944Z,916.04